Time;durP1;ratioP1;P1;durP2;ratioP2;P2;SDS_P1;SDS_P2;PMS_P1;PMS_P2;Temp;Humidity;BMP_temperature;BMP_pressure;BME280_temperature;BME280_humidity;BME280_pressure;Samples;Min_cycle;Max_cycle;Signal;HPM_P1;HPM_P2
2021/08/26 00:06:52;;;;;;;1.60;1.30;;;;;;;10.34;100.00;101158.00;2568910;55;20643;-74
2021/08/26 00:09:22;;;;;;;3.12;1.17;;;;;;;10.30;100.00;101157.34;2568958;55;20516;-75
2021/08/26 00:11:51;;;;;;;2.33;1.20;;;;;;;10.30;100.00;101161.81;2564977;55;20160;-74
2021/08/26 00:14:20;;;;;;;1.70;1.02;;;;;;;10.34;100.00;101163.34;2568477;55;20136;-74
2021/08/26 00:16:48;;;;;;;2.92;1.50;;;;;;;10.28;100.00;101163.75;2569341;55;20242;-74
2021/08/26 00:19:15;;;;;;;3.78;1.20;;;;;;;10.32;100.00;101162.56;2568151;55;20113;-74
2021/08/26 00:21:43;;;;;;;1.67;1.10;;;;;;;10.30;100.00;101169.81;2567035;55;20146;-74
2021/08/26 00:24:13;;;;;;;2.15;1.23;;;;;;;10.28;100.00;101169.06;2570246;55;20117;-74
2021/08/26 00:26:42;;;;;;;3.25;1.77;;;;;;;10.32;100.00;101167.06;2569005;55;20133;-74
2021/08/26 00:29:10;;;;;;;1.48;1.20;;;;;;;10.26;100.00;101173.66;2567948;55;20109;-74
2021/08/26 00:31:38;;;;;;;2.37;1.37;;;;;;;10.18;100.00;101173.31;2568637;55;20114;-74
2021/08/26 00:34:05;;;;;;;1.58;1.17;;;;;;;10.27;100.00;101178.91;2570090;55;20127;-74
2021/08/26 00:36:33;;;;;;;3.75;2.15;;;;;;;10.32;100.00;101173.22;2568231;55;20113;-74
2021/08/26 00:39:01;;;;;;;4.80;1.40;;;;;;;10.27;100.00;101170.91;2569788;55;20136;-74
2021/08/26 00:41:30;;;;;;;2.47;1.10;;;;;;;10.23;100.00;101171.22;2567390;55;20129;-74
2021/08/26 00:44:01;;;;;;;3.15;1.35;;;;;;;10.31;100.00;101184.84;2564357;55;20106;-74
2021/08/26 00:46:29;;;;;;;2.58;1.45;;;;;;;10.18;100.00;101178.66;2569130;55;20170;-74
2021/08/26 00:48:57;;;;;;;3.03;2.08;;;;;;;10.13;100.00;101182.47;2568929;55;20135;-74
2021/08/26 00:51:25;;;;;;;2.33;1.45;;;;;;;10.16;100.00;101186.72;2568392;55;20263;-74
2021/08/26 00:53:54;;;;;;;3.40;1.20;;;;;;;10.12;100.00;101188.78;2569604;55;20121;-75
2021/08/26 00:56:22;;;;;;;2.12;1.87;;;;;;;10.19;100.00;101189.22;2568646;55;20148;-74
2021/08/26 00:58:51;;;;;;;4.43;2.00;;;;;;;10.15;100.00;101188.56;2563322;55;20509;-74
2021/08/26 01:01:27;;;;;;;1.80;1.10;;;;;;;10.21;100.00;101191.75;2568435;55;20117;-74
2021/08/26 01:04:00;;;;;;;2.67;1.80;;;;;;;10.14;100.00;101194.84;2568867;55;20132;-74
2021/08/26 01:06:41;;;;;;;1.70;1.08;;;;;;;10.15;100.00;101196.56;2569784;55;20618;-74
2021/08/26 01:09:14;;;;;;;1.67;1.05;;;;;;;10.14;100.00;101193.97;2570365;55;20109;-75
2021/08/26 01:11:44;;;;;;;1.60;1.23;;;;;;;10.05;100.00;101189.25;2569164;55;20222;-74
2021/08/26 01:14:13;;;;;;;2.17;1.67;;;;;;;10.03;100.00;101192.03;2571657;55;20547;-74
2021/08/26 01:16:42;;;;;;;2.42;1.30;;;;;;;10.08;100.00;101194.41;2570039;55;20616;-74
2021/08/26 01:19:10;;;;;;;2.90;1.30;;;;;;;10.07;100.00;101198.00;2570705;55;20549;-74
2021/08/26 01:21:38;;;;;;;2.12;1.70;;;;;;;10.03;100.00;101192.03;2569076;55;20117;-73
2021/08/26 01:24:09;;;;;;;3.40;1.30;;;;;;;10.04;100.00;101191.09;2570079;55;20101;-74
2021/08/26 01:26:42;;;;;;;2.33;1.33;;;;;;;10.05;100.00;101195.44;2569782;55;20128;-73
2021/08/26 01:29:11;;;;;;;1.70;1.33;;;;;;;10.01;100.00;101207.25;2568735;55;20118;-74
2021/08/26 01:31:41;;;;;;;4.82;1.70;;;;;;;10.02;100.00;101201.84;2571022;55;20230;-74
2021/08/26 01:34:08;;;;;;;2.97;1.67;;;;;;;10.01;100.00;101200.13;2572612;55;20127;-74
2021/08/26 01:36:36;;;;;;;4.68;2.20;;;;;;;10.05;100.00;101206.13;2572798;55;20106;-68
2021/08/26 01:39:07;;;;;;;4.30;1.95;;;;;;;10.03;100.00;101205.38;2573502;55;20131;-74
2021/08/26 01:41:44;;;;;;;4.28;1.50;;;;;;;10.01;100.00;101208.12;2573563;55;20113;-74
2021/08/26 01:44:14;;;;;;;2.28;1.80;;;;;;;9.95;100.00;101205.00;2573491;55;20109;-74
2021/08/26 01:46:41;;;;;;;3.75;1.73;;;;;;;9.96;100.00;101212.03;2573528;55;20106;-74
2021/08/26 01:49:09;;;;;;;1.92;1.42;;;;;;;9.93;100.00;101204.25;2573237;55;20642;-74
2021/08/26 01:51:40;;;;;;;2.35;1.77;;;;;;;9.94;100.00;101208.62;2573697;55;20132;-68
2021/08/26 01:54:08;;;;;;;2.47;1.70;;;;;;;9.92;100.00;101207.84;2573425;55;20586;-75
2021/08/26 01:56:36;;;;;;;2.03;1.55;;;;;;;9.93;100.00;101206.91;2573573;55;20122;-68
2021/08/26 01:59:05;;;;;;;3.10;1.75;;;;;;;9.91;100.00;101222.12;2573504;55;20120;-68
2021/08/26 02:01:33;;;;;;;2.90;1.73;;;;;;;9.88;100.00;101220.53;2573621;55;20656;-68
2021/08/26 02:04:03;;;;;;;4.40;2.05;;;;;;;9.94;100.00;101214.81;2573440;55;20117;-68
2021/08/26 02:06:31;;;;;;;4.60;1.65;;;;;;;9.86;100.00;101217.09;2573598;55;20129;-69
2021/08/26 02:08:59;;;;;;;4.10;1.60;;;;;;;9.86;100.00;101225.97;2573347;55;20681;-76
2021/08/26 02:11:27;;;;;;;2.08;1.50;;;;;;;9.82;100.00;101219.13;2573432;55;20132;-75
2021/08/26 02:13:55;;;;;;;2.65;1.85;;;;;;;9.80;100.00;101225.50;2573166;55;20609;-75
2021/08/26 02:16:24;;;;;;;2.35;1.60;;;;;;;9.76;100.00;101230.16;2573608;55;20564;-69
2021/08/26 02:18:52;;;;;;;2.70;1.70;;;;;;;9.69;100.00;101232.38;2573342;55;20403;-70
2021/08/26 02:21:19;;;;;;;2.22;1.48;;;;;;;9.67;100.00;101228.09;2573303;55;20113;-70
2021/08/26 02:23:50;;;;;;;2.78;1.50;;;;;;;9.74;100.00;101234.75;2573321;55;20128;-69
2021/08/26 02:26:18;;;;;;;3.25;1.67;;;;;;;9.68;100.00;101237.78;2573395;55;20114;-70
2021/08/26 02:28:46;;;;;;;2.22;1.80;;;;;;;9.71;100.00;101235.78;2573404;55;20114;-70
2021/08/26 02:31:13;;;;;;;5.57;2.33;;;;;;;9.65;100.00;101235.31;2568236;55;20627;-73
2021/08/26 02:33:43;;;;;;;3.50;1.50;;;;;;;9.59;100.00;101237.41;2573338;55;20118;-73
2021/08/26 02:36:11;;;;;;;4.93;1.62;;;;;;;9.57;100.00;101239.31;2573217;55;20128;-67
2021/08/26 02:38:39;;;;;;;3.08;1.60;;;;;;;9.54;100.00;101238.66;2573328;55;20114;-67
2021/08/26 02:41:07;;;;;;;4.18;1.62;;;;;;;9.50;100.00;101237.16;2573350;55;20125;-67
2021/08/26 02:43:35;;;;;;;1.95;1.52;;;;;;;9.50;100.00;101253.97;2573537;55;20163;-76
2021/08/26 02:46:03;;;;;;;4.55;1.67;;;;;;;9.47;100.00;101246.19;2573461;55;20113;-67
2021/08/26 02:48:31;;;;;;;6.43;2.17;;;;;;;9.46;100.00;101247.13;2573419;55;20132;-75
2021/08/26 02:51:00;;;;;;;2.97;1.80;;;;;;;9.46;100.00;101244.47;2573431;55;20114;-69
2021/08/26 02:53:27;;;;;;;2.80;2.10;;;;;;;9.43;100.00;101250.00;2573252;55;20109;-75
2021/08/26 02:55:57;;;;;;;2.58;1.90;;;;;;;9.41;100.00;101243.87;2573320;55;20157;-69
2021/08/26 02:58:25;;;;;;;2.33;1.75;;;;;;;9.39;100.00;101243.13;2573305;55;20646;-69
2021/08/26 03:00:53;;;;;;;3.50;1.58;;;;;;;9.44;100.00;101243.72;2573057;55;20132;-69
2021/08/26 03:03:21;;;;;;;4.65;1.92;;;;;;;9.41;100.00;101243.87;2573373;55;20110;-69
2021/08/26 03:05:48;;;;;;;4.57;1.67;;;;;;;9.42;100.00;101243.78;2573303;55;20113;-70
2021/08/26 03:08:17;;;;;;;2.30;1.90;;;;;;;9.39;100.00;101246.66;2573252;55;20121;-76
2021/08/26 03:11:03;;;;;;;3.58;1.90;;;;;;;9.55;100.00;101253.69;2573121;55;20106;-70
2021/08/26 03:13:31;;;;;;;4.68;2.15;;;;;;;9.44;100.00;101244.56;2573296;55;20626;-75
2021/08/26 03:15:59;;;;;;;3.90;2.53;;;;;;;9.43;100.00;101252.66;2573218;55;20519;-69
2021/08/26 03:18:27;;;;;;;5.05;1.60;;;;;;;9.39;100.00;101253.78;2573255;55;20614;-75
2021/08/26 03:20:54;;;;;;;4.40;2.25;;;;;;;9.42;100.00;101250.91;2573231;55;20148;-75
2021/08/26 03:23:23;;;;;;;3.72;2.00;;;;;;;9.46;100.00;101258.62;2573048;55;20504;-76
2021/08/26 03:25:51;;;;;;;3.22;1.73;;;;;;;9.41;100.00;101254.53;2573150;55;20117;-75
2021/08/26 03:28:20;;;;;;;3.47;2.00;;;;;;;9.37;100.00;101250.37;2573391;55;20110;-76
2021/08/26 03:30:48;;;;;;;3.47;2.28;;;;;;;9.39;100.00;101254.66;2573229;55;20132;-76
2021/08/26 03:33:16;;;;;;;7.43;2.60;;;;;;;9.45;100.00;101262.25;2568109;55;20114;-69
2021/08/26 03:35:45;;;;;;;4.45;2.42;;;;;;;9.45;100.00;101267.56;2573252;55;20645;-73
2021/08/26 03:38:13;;;;;;;3.80;2.50;;;;;;;9.48;100.00;101260.37;2573188;55;20128;-67
2021/08/26 03:40:43;;;;;;;6.60;2.58;;;;;;;9.40;100.00;101252.81;2573105;55;20114;-73
2021/08/26 03:43:10;;;;;;;5.20;2.40;;;;;;;9.45;100.00;101264.91;2573102;55;20627;-73
2021/08/26 03:45:38;;;;;;;4.47;2.30;;;;;;;9.49;100.00;101273.56;2573149;55;20136;-67
2021/08/26 03:48:07;;;;;;;3.87;2.50;;;;;;;9.58;100.00;101267.66;2573075;55;20169;-73
2021/08/26 03:50:35;;;;;;;3.25;2.20;;;;;;;9.59;100.00;101257.88;2573168;55;20118;-73
2021/08/26 03:53:03;;;;;;;2.75;1.87;;;;;;;9.59;100.00;101263.22;2573195;55;20143;-73
2021/08/26 03:55:31;;;;;;;3.72;2.45;;;;;;;9.67;100.00;101268.06;2573212;55;20166;-67
2021/08/26 03:58:00;;;;;;;4.68;2.72;;;;;;;9.63;100.00;101275.38;2573041;55;20133;-73
2021/08/26 04:00:28;;;;;;;4.85;3.20;;;;;;;9.63;100.00;101277.19;2573208;55;20109;-74
2021/08/26 04:02:56;;;;;;;5.55;3.03;;;;;;;9.59;100.00;101264.06;2573176;55;20186;-68
2021/08/26 04:05:23;;;;;;;6.25;3.17;;;;;;;9.59;100.00;101274.72;2573191;55;20121;-73
2021/08/26 04:07:51;;;;;;;4.07;3.25;;;;;;;9.65;100.00;101277.97;2573169;55;20121;-67
2021/08/26 04:10:19;;;;;;;4.55;3.28;;;;;;;9.71;100.00;101277.56;2573027;55;20115;-73
2021/08/26 04:12:47;;;;;;;4.85;3.37;;;;;;;9.74;100.00;101283.56;2573135;55;20110;-75
2021/08/26 04:15:16;;;;;;;5.75;3.28;;;;;;;9.80;100.00;101281.47;2567925;55;20131;-73
2021/08/26 04:17:44;;;;;;;5.45;3.40;;;;;;;9.81;100.00;101280.50;2566886;56;20946;-67
2021/08/26 04:20:12;;;;;;;4.82;2.90;;;;;;;9.85;100.00;101288.22;2566890;56;20132;-74
2021/08/26 04:22:40;;;;;;;4.65;2.47;;;;;;;9.85;100.00;101284.69;2566422;56;20118;-67
2021/08/26 04:25:09;;;;;;;4.20;2.67;;;;;;;9.91;100.00;101284.31;2566744;56;20136;-73
2021/08/26 04:27:37;;;;;;;4.43;2.97;;;;;;;9.86;100.00;101276.59;2567074;56;20237;-73
2021/08/26 04:30:05;;;;;;;7.70;2.87;;;;;;;9.94;100.00;101293.94;2566113;56;20144;-67
2021/08/26 04:32:35;;;;;;;4.75;2.85;;;;;;;9.92;100.00;101285.16;2567071;56;20122;-67
2021/08/26 04:35:03;;;;;;;5.50;3.03;;;;;;;10.00;100.00;101285.53;2566765;56;20140;-67
2021/08/26 04:37:30;;;;;;;5.25;2.58;;;;;;;10.05;100.00;101290.56;2567231;56;20552;-74
2021/08/26 04:39:58;;;;;;;4.85;2.65;;;;;;;10.09;100.00;101287.59;2567843;55;20109;-67
2021/08/26 04:42:26;;;;;;;4.95;3.25;;;;;;;10.11;100.00;101293.69;2568030;55;20122;-69
2021/08/26 04:44:54;;;;;;;5.60;2.25;;;;;;;10.18;100.00;101301.31;2568637;55;20629;-68
2021/08/26 04:47:22;;;;;;;2.67;2.00;;;;;;;10.18;100.00;101295.97;2568631;55;20430;-73
2021/08/26 04:49:51;;;;;;;3.55;1.85;;;;;;;10.25;100.00;101291.97;2568505;55;20109;-73
2021/08/26 04:52:19;;;;;;;3.15;2.12;;;;;;;10.29;100.00;101294.34;2568428;55;20118;-67
2021/08/26 04:54:47;;;;;;;6.22;2.75;;;;;;;10.30;100.00;101288.03;2568575;55;20110;-73
2021/08/26 04:57:14;;;;;;;4.95;2.78;;;;;;;10.41;100.00;101300.69;2568574;55;20111;-73
2021/08/26 04:59:42;;;;;;;4.05;2.90;;;;;;;10.42;100.00;101297.09;2568478;55;20132;-68
2021/08/26 05:02:10;;;;;;;15.98;3.83;;;;;;;10.48;100.00;101302.97;2570426;55;20115;-73
2021/08/26 05:04:38;;;;;;;6.10;2.60;;;;;;;10.54;100.00;101300.75;2570663;55;20128;-73
2021/08/26 05:07:07;;;;;;;5.15;3.17;;;;;;;10.52;100.00;101300.00;2570295;55;20125;-73
2021/08/26 05:09:35;;;;;;;5.05;2.65;;;;;;;10.62;100.00;101310.94;2570045;55;20552;-74
2021/08/26 05:12:06;;;;;;;6.15;2.30;;;;;;;10.67;100.00;101307.94;2568991;55;20128;-68
2021/08/26 05:14:33;;;;;;;4.87;2.22;;;;;;;10.73;100.00;101312.03;2568503;55;20118;-73
2021/08/26 05:17:02;;;;;;;5.82;3.35;;;;;;;10.74;100.00;101319.09;2568465;55;20132;-74
2021/08/26 05:19:29;;;;;;;7.20;3.72;;;;;;;10.79;100.00;101314.28;2568546;55;20528;-67
2021/08/26 05:21:57;;;;;;;7.75;3.03;;;;;;;10.81;100.00;101321.22;2568474;55;20125;-74
2021/08/26 05:24:27;;;;;;;5.28;2.70;;;;;;;10.85;100.00;101311.22;2567810;55;20106;-74
2021/08/26 05:26:54;;;;;;;6.35;2.87;;;;;;;10.97;100.00;101320.19;2568399;56;20117;-67
2021/08/26 05:29:22;;;;;;;4.50;2.17;;;;;;;11.11;100.00;101322.78;2568297;55;20118;-68
2021/08/26 05:31:50;;;;;;;8.15;3.08;;;;;;;11.18;100.00;101311.72;2566738;55;20121;-73
2021/08/26 05:34:18;;;;;;;5.07;2.83;;;;;;;11.24;100.00;101322.81;2570204;55;20122;-67
2021/08/26 05:36:45;;;;;;;5.12;2.53;;;;;;;11.31;100.00;101319.72;2571671;55;20179;-67
2021/08/26 05:39:13;;;;;;;6.47;2.20;;;;;;;11.44;100.00;101325.94;2568959;55;20535;-69
2021/08/26 05:41:44;;;;;;;6.05;3.17;;;;;;;11.55;100.00;101317.16;2570582;55;20662;-68
2021/08/26 05:44:14;;;;;;;5.30;1.93;;;;;;;11.74;100.00;101321.22;2570637;55;20135;-69
2021/08/26 05:46:42;;;;;;;4.97;2.70;;;;;;;11.74;100.00;101318.53;2569088;55;20238;-66
2021/08/26 05:49:10;;;;;;;6.18;3.70;;;;;;;11.80;100.00;101329.66;2569561;55;20643;-69
2021/08/26 05:51:37;;;;;;;6.78;3.35;;;;;;;11.81;100.00;101317.16;2569071;55;20148;-67
2021/08/26 05:54:05;;;;;;;5.18;4.10;;;;;;;11.96;100.00;101324.06;2569222;55;20112;-67
2021/08/26 05:56:33;;;;;;;6.85;3.65;;;;;;;12.10;100.00;101324.94;2569208;55;20125;-67
2021/08/26 05:59:02;;;;;;;6.85;4.20;;;;;;;12.20;100.00;101341.16;2569967;55;20625;-68
2021/08/26 06:01:31;;;;;;;4.15;3.03;;;;;;;12.27;100.00;101338.91;2568687;55;20639;-75
2021/08/26 06:03:59;;;;;;;4.68;2.97;;;;;;;12.33;100.00;101328.63;2568568;55;20106;-77
2021/08/26 06:06:27;;;;;;;4.43;3.12;;;;;;;12.53;100.00;101332.50;2567377;55;20135;-77
2021/08/26 06:08:55;;;;;;;5.15;2.58;;;;;;;12.69;100.00;101344.75;2566946;55;20543;-77
2021/08/26 06:11:23;;;;;;;3.70;2.55;;;;;;;12.76;100.00;101347.84;2567240;55;20118;-78
2021/08/26 06:13:50;;;;;;;4.60;2.80;;;;;;;12.73;100.00;101342.72;2567378;55;20527;-70
2021/08/26 06:16:19;;;;;;;4.53;1.90;;;;;;;12.83;100.00;101351.78;2566218;55;20125;-73
2021/08/26 06:18:47;;;;;;;6.37;3.78;;;;;;;12.73;100.00;101345.41;2567513;55;20493;-69
2021/08/26 06:21:17;;;;;;;4.18;3.22;;;;;;;12.80;100.00;101347.50;2566861;55;20122;-75
2021/08/26 06:23:44;;;;;;;8.48;3.90;;;;;;;12.83;100.00;101354.44;2566964;55;20137;-68
2021/08/26 06:26:13;;;;;;;5.85;3.53;;;;;;;12.89;100.00;101351.28;2567453;55;20169;-74
2021/08/26 06:28:40;;;;;;;5.57;3.85;;;;;;;12.96;100.00;101361.56;2566177;55;20137;-68
2021/08/26 06:31:08;;;;;;;7.22;4.47;;;;;;;12.97;100.00;101353.38;2566701;55;20597;-68
2021/08/26 06:33:38;;;;;;;5.95;2.80;;;;;;;13.04;100.00;101356.47;2567377;55;20122;-68
2021/08/26 06:36:06;;;;;;;6.00;3.05;;;;;;;13.05;100.00;101353.66;2567087;55;20114;-68
2021/08/26 06:38:34;;;;;;;5.87;2.95;;;;;;;13.11;100.00;101351.50;2567107;55;20118;-68
2021/08/26 06:41:03;;;;;;;4.03;3.12;;;;;;;13.24;100.00;101362.16;2567503;55;20136;-68
2021/08/26 06:43:31;;;;;;;5.45;3.47;;;;;;;13.30;100.00;101353.62;2566753;55;20120;-68
2021/08/26 06:45:58;;;;;;;5.90;3.42;;;;;;;13.40;100.00;101357.31;2567004;55;20636;-68
2021/08/26 06:48:26;;;;;;;4.55;3.10;;;;;;;13.50;100.00;101350.28;2567165;55;20157;-75
2021/08/26 06:50:55;;;;;;;6.22;3.05;;;;;;;13.56;99.97;101358.84;2566850;56;20508;-74
2021/08/26 06:53:23;;;;;;;3.78;2.60;;;;;;;13.66;98.52;101356.28;2566778;55;20125;-68
2021/08/26 06:55:51;;;;;;;5.57;3.28;;;;;;;13.69;97.98;101346.16;2567340;55;20129;-75
2021/08/26 06:58:18;;;;;;;3.62;2.47;;;;;;;13.82;96.90;101355.91;2567054;55;20132;-75
2021/08/26 07:00:46;;;;;;;5.45;3.28;;;;;;;13.94;99.55;101354.09;2567139;55;20136;-75
2021/08/26 07:03:14;;;;;;;3.70;2.80;;;;;;;14.19;98.21;101348.50;2566878;55;20117;-75
2021/08/26 07:05:42;;;;;;;4.40;2.85;;;;;;;14.48;94.65;101363.19;2567188;55;20113;-69
2021/08/26 07:08:11;;;;;;;6.30;3.12;;;;;;;14.78;93.09;101375.09;2566851;55;20118;-68
2021/08/26 07:10:39;;;;;;;6.85;3.42;;;;;;;14.85;91.67;101360.19;2566993;55;20121;-75
2021/08/26 07:13:07;;;;;;;5.18;3.40;;;;;;;14.96;91.83;101366.50;2566244;55;20122;-74
2021/08/26 07:15:34;;;;;;;5.95;3.30;;;;;;;15.00;89.06;101357.19;2566881;55;20513;-75
2021/08/26 07:18:03;;;;;;;8.27;3.67;;;;;;;15.09;89.32;101372.53;2566842;55;20129;-75
2021/08/26 07:20:31;;;;;;;7.30;2.80;;;;;;;15.16;88.04;101381.81;2567347;55;20118;-68
2021/08/26 07:22:59;;;;;;;6.05;4.05;;;;;;;15.03;90.04;101373.91;2566779;55;20125;-75
2021/08/26 07:25:29;;;;;;;5.05;3.00;;;;;;;14.99;91.42;101371.63;2567150;55;20132;-68
2021/08/26 07:27:56;;;;;;;6.37;2.97;;;;;;;14.94;89.68;101388.12;2567304;55;20133;-68
2021/08/26 07:30:24;;;;;;;5.00;3.00;;;;;;;14.85;88.56;101376.31;2566869;55;20134;-68
2021/08/26 07:32:52;;;;;;;6.37;2.55;;;;;;;14.79;88.66;101384.88;2566733;55;20110;-68
2021/08/26 07:35:20;;;;;;;5.05;2.15;;;;;;;14.76;87.76;101385.13;2566894;55;20132;-75
2021/08/26 07:37:50;;;;;;;10.27;3.30;;;;;;;14.67;89.09;101384.00;2567029;55;20118;-68
2021/08/26 07:40:18;;;;;;;7.03;3.58;;;;;;;14.68;90.33;101387.56;2566893;55;20110;-68
2021/08/26 07:42:49;;;;;;;6.43;3.00;;;;;;;14.73;88.02;101391.59;2567346;55;20141;-68
2021/08/26 07:45:17;;;;;;;3.92;2.40;;;;;;;14.72;86.54;101397.06;2565995;55;20564;-75
2021/08/26 07:47:45;;;;;;;7.22;4.07;;;;;;;14.64;86.94;101394.19;2566798;55;20117;-68
2021/08/26 07:50:13;;;;;;;5.53;2.90;;;;;;;14.69;86.36;101402.69;2567239;55;20122;-75
2021/08/26 07:52:42;;;;;;;8.20;3.33;;;;;;;14.66;87.49;101405.63;2566329;55;20183;-76
2021/08/26 07:55:10;;;;;;;8.38;4.43;;;;;;;14.67;88.75;101408.19;2567097;55;20114;-68
2021/08/26 07:57:38;;;;;;;6.75;3.42;;;;;;;14.65;88.51;101401.25;2566929;55;20508;-76
2021/08/26 08:00:08;;;;;;;4.32;2.37;;;;;;;14.66;88.08;101408.31;2566617;55;20130;-69
2021/08/26 08:02:36;;;;;;;4.55;2.62;;;;;;;14.59;86.84;101403.44;2567074;55;20131;-76
2021/08/26 08:05:04;;;;;;;4.90;2.87;;;;;;;14.45;87.45;101403.72;2567038;55;20514;-75
2021/08/26 08:07:32;;;;;;;5.35;3.47;;;;;;;14.33;88.54;101406.44;2566527;56;20136;-76
2021/08/26 08:10:00;;;;;;;8.13;3.28;;;;;;;14.23;88.38;101402.78;2567104;55;20132;-68
2021/08/26 08:12:27;;;;;;;8.57;3.55;;;;;;;14.24;88.99;101412.53;2567361;56;20139;-75
2021/08/26 08:14:55;;;;;;;7.75;5.43;;;;;;;14.23;90.98;101418.88;2567638;55;20140;-75
2021/08/26 08:17:24;;;;;;;12.40;6.07;;;;;;;14.25;91.58;101424.97;2567699;55;20135;-75
2021/08/26 08:19:52;;;;;;;9.50;3.30;;;;;;;14.29;89.44;101421.06;2568060;55;20639;-68
2021/08/26 08:22:20;;;;;;;3.67;2.50;;;;;;;14.27;90.14;101430.19;2567465;55;20117;-76
2021/08/26 08:24:47;;;;;;;6.82;2.87;;;;;;;14.25;88.80;101427.66;2567911;55;20163;-69
2021/08/26 08:27:15;;;;;;;8.98;3.40;;;;;;;14.27;91.34;101436.44;2567505;55;20155;-76
2021/08/26 08:29:43;;;;;;;9.35;5.53;;;;;;;14.27;89.75;101428.38;2567475;55;20172;-68
2021/08/26 08:32:11;;;;;;;7.25;4.22;;;;;;;14.27;90.36;101431.06;2567879;55;20121;-76
2021/08/26 08:34:40;;;;;;;11.00;4.62;;;;;;;14.25;92.16;101435.69;2567690;55;20124;-75
2021/08/26 08:37:08;;;;;;;6.22;3.05;;;;;;;14.26;90.76;101431.16;2567326;55;20644;-76
2021/08/26 08:39:36;;;;;;;9.10;4.68;;;;;;;14.21;90.54;101426.16;2567746;55;20118;-76
2021/08/26 08:42:04;;;;;;;7.40;3.58;;;;;;;14.19;92.12;101428.12;2567553;55;20133;-76
2021/08/26 08:44:32;;;;;;;6.78;3.97;;;;;;;14.21;92.85;101436.91;2567282;55;20122;-68
2021/08/26 08:47:00;;;;;;;8.50;3.08;;;;;;;14.22;92.59;101438.59;2567776;55;20118;-68
2021/08/26 08:49:28;;;;;;;5.22;3.00;;;;;;;14.15;94.35;101443.63;2567734;55;20115;-76
2021/08/26 08:51:57;;;;;;;6.50;3.05;;;;;;;14.17;92.93;101440.81;2566829;56;20120;-76
2021/08/26 08:54:26;;;;;;;6.70;3.67;;;;;;;14.11;93.11;101441.28;2567802;55;20108;-68
2021/08/26 08:56:53;;;;;;;7.80;3.35;;;;;;;14.05;92.76;101437.28;2566655;55;20110;-76
2021/08/26 08:59:21;;;;;;;14.68;8.05;;;;;;;14.03;92.54;101440.09;2567367;55;20122;-76
2021/08/26 09:01:52;;;;;;;6.85;3.95;;;;;;;13.99;94.40;101449.34;2567666;55;20126;-68
2021/08/26 09:04:20;;;;;;;7.47;4.32;;;;;;;13.92;95.67;101450.78;2567767;55;20122;-76
2021/08/26 09:06:50;;;;;;;8.18;3.42;;;;;;;13.90;95.99;101450.91;2567395;55;20163;-68
2021/08/26 09:09:21;;;;;;;7.00;3.03;;;;;;;13.91;95.30;101441.03;2567533;55;20121;-69
2021/08/26 09:11:50;;;;;;;6.57;2.40;;;;;;;13.92;95.59;101448.09;2566647;55;20568;-69
2021/08/26 09:14:19;;;;;;;3.30;2.42;;;;;;;13.86;96.87;101453.97;2567430;55;20658;-69
2021/08/26 09:16:51;;;;;;;3.87;2.30;;;;;;;13.87;97.65;101453.81;2567109;55;20125;-76
2021/08/26 09:19:27;;;;;;;7.47;3.12;;;;;;;13.84;98.57;101461.28;2567599;55;20122;-68
2021/08/26 09:21:55;;;;;;;5.55;2.75;;;;;;;13.83;100.00;101460.41;2567260;55;20123;-76
2021/08/26 09:24:42;;;;;;;3.92;2.08;;;;;;;13.88;97.69;101468.97;2567584;55;20140;-69
2021/08/26 09:27:09;;;;;;;5.90;2.85;;;;;;;13.83;96.61;101467.59;2567339;55;20117;-68
2021/08/26 09:30:01;;;;;;;6.32;3.17;;;;;;;13.86;97.71;101459.31;2567249;55;20128;-68
2021/08/26 09:32:34;;;;;;;5.22;3.00;;;;;;;13.79;98.49;101458.94;2567013;55;20106;-76
2021/08/26 09:35:17;;;;;;;13.20;4.15;;;;;;;13.80;99.07;101457.97;2567739;55;20115;-76
2021/08/26 09:37:47;;;;;;;5.25;2.75;;;;;;;13.75;98.95;101466.38;2567212;55;20136;-76
2021/08/26 09:40:18;;;;;;;5.80;2.57;;;;;;;13.68;98.22;101457.09;2567519;55;20136;-76
2021/08/26 09:42:55;;;;;;;7.40;2.70;;;;;;;13.76;98.32;101470.75;2567430;55;20256;-76
2021/08/26 09:45:26;;;;;;;4.47;2.75;;;;;;;13.68;99.58;101470.50;2567703;55;20106;-68
2021/08/26 09:48:02;;;;;;;4.82;2.67;;;;;;;13.69;99.86;101469.50;2567399;55;20113;-69
2021/08/26 09:50:51;;;;;;;8.02;3.15;;;;;;;13.74;98.31;101470.03;2567031;55;20613;-76
2021/08/26 09:53:21;;;;;;;5.87;3.28;;;;;;;13.64;99.36;101475.22;2566168;55;20105;-76
2021/08/26 09:56:02;;;;;;;6.00;3.58;;;;;;;13.64;100.00;101477.06;2567378;55;20109;-69
2021/08/26 09:58:33;;;;;;;5.05;2.90;;;;;;;13.63;100.00;101475.38;2567238;55;20122;-76
2021/08/26 10:01:09;;;;;;;7.12;2.60;;;;;;;13.66;100.00;101491.22;2567567;55;20122;-69
2021/08/26 10:03:38;;;;;;;7.55;4.03;;;;;;;13.62;100.00;101490.59;2567357;55;20133;-69
2021/08/26 10:06:05;;;;;;;7.97;3.95;;;;;;;13.62;100.00;101493.25;2567077;55;20125;-69
2021/08/26 10:08:34;;;;;;;6.12;3.67;;;;;;;13.67;100.00;101492.03;2567131;55;20125;-68
2021/08/26 10:11:04;;;;;;;7.55;3.10;;;;;;;13.70;100.00;101494.50;2567500;55;20137;-69
2021/08/26 10:13:32;;;;;;;4.97;3.17;;;;;;;13.71;100.00;101505.09;2566907;55;20133;-69
2021/08/26 10:16:01;;;;;;;5.53;2.65;;;;;;;13.78;100.00;101501.00;2567349;55;20132;-76
2021/08/26 10:18:30;;;;;;;8.43;3.83;;;;;;;13.74;100.00;101504.03;2567369;55;20114;-68
2021/08/26 10:20:59;;;;;;;6.78;3.80;;;;;;;13.77;100.00;101503.78;2566841;55;20485;-76
2021/08/26 10:23:27;;;;;;;6.78;3.50;;;;;;;13.87;100.00;101502.09;2567135;55;20126;-68
2021/08/26 10:26:02;;;;;;;5.80;2.60;;;;;;;13.81;100.00;101499.91;2566753;55;20153;-75
2021/08/26 10:28:34;;;;;;;6.80;3.15;;;;;;;13.84;100.00;101512.25;2566964;55;20118;-75
2021/08/26 10:31:23;;;;;;;5.45;3.17;;;;;;;13.88;100.00;101511.87;2567196;55;20109;-76
2021/08/26 10:33:51;;;;;;;7.72;3.12;;;;;;;13.84;100.00;101518.44;2566995;55;20171;-76
2021/08/26 10:36:20;;;;;;;5.30;3.08;;;;;;;13.76;100.00;101519.03;2566876;55;20634;-76
2021/08/26 10:38:47;;;;;;;6.70;3.67;;;;;;;13.70;100.00;101518.66;2567421;55;20611;-76
2021/08/26 10:41:29;;;;;;;8.32;3.35;;;;;;;13.71;100.00;101512.31;2567072;55;20135;-75
2021/08/26 10:44:00;;;;;;;6.57;3.53;;;;;;;13.68;100.00;101515.19;2567030;55;20114;-76
2021/08/26 10:46:47;;;;;;;6.37;3.03;;;;;;;13.74;100.00;101525.47;2567162;55;20139;-75
2021/08/26 10:49:15;;;;;;;6.60;3.12;;;;;;;13.67;100.00;101521.53;2564904;55;20815;-69
2021/08/26 10:51:44;;;;;;;5.47;3.72;;;;;;;13.73;100.00;101524.63;2567059;55;20106;-68
2021/08/26 10:54:27;;;;;;;5.80;3.00;;;;;;;13.70;100.00;101524.84;2566961;55;20110;-68
2021/08/26 10:56:55;;;;;;;5.95;2.35;;;;;;;13.68;100.00;101529.47;2567020;55;20624;-76
2021/08/26 10:59:32;;;;;;;4.68;2.80;;;;;;;13.68;100.00;101529.47;2567397;55;20118;-68
2021/08/26 11:02:01;;;;;;;5.80;2.95;;;;;;;13.64;100.00;101531.53;2567305;55;20114;-75
2021/08/26 11:04:32;;;;;;;7.78;3.30;;;;;;;13.59;100.00;101527.50;2567017;55;20128;-68
2021/08/26 11:07:01;;;;;;;10.65;4.07;;;;;;;13.53;100.00;101533.31;2566797;55;20148;-68
2021/08/26 11:09:39;;;;;;;6.20;3.50;;;;;;;13.53;100.00;101527.94;2567249;55;20127;-68
2021/08/26 11:12:27;;;;;;;9.10;4.85;;;;;;;13.43;100.00;101528.63;2567020;55;21074;-78
2021/08/26 11:15:01;;;;;;;9.00;3.75;;;;;;;13.35;100.00;101531.00;2567456;55;20129;-76
2021/08/26 11:17:36;;;;;;;7.62;3.40;;;;;;;13.33;100.00;101532.97;2567408;55;20627;-68
2021/08/26 11:20:26;;;;;;;6.18;3.62;;;;;;;13.31;100.00;101524.16;2566871;55;20109;-68
2021/08/26 11:23:09;;;;;;;4.70;3.12;;;;;;;13.32;100.00;101526.72;2567129;55;20106;-68
2021/08/26 11:25:37;;;;;;;7.15;3.65;;;;;;;13.25;100.00;101519.28;2567042;55;20132;-77
2021/08/26 11:28:33;;;;;;;6.00;3.42;;;;;;;13.27;100.00;101514.66;2566576;55;20647;-76
2021/08/26 11:31:21;;;;;;;7.65;3.62;;;;;;;13.25;100.00;101520.09;2567403;55;20132;-76
2021/08/26 11:33:52;;;;;;;4.80;3.17;;;;;;;13.16;100.00;101513.62;2566913;55;20119;-68
2021/08/26 11:36:20;;;;;;;8.18;4.10;;;;;;;13.18;100.00;101514.34;2566153;55;20124;-68
2021/08/26 11:38:51;;;;;;;7.78;3.17;;;;;;;13.19;100.00;101521.41;2567216;55;20122;-77